Time;durP1;ratioP1;P1;durP2;ratioP2;P2;SDS_P1;SDS_P2;PMS_P1;PMS_P2;Temp;Humidity;BMP_temperature;BMP_pressure;BME280_temperature;BME280_humidity;BME280_pressure;Samples;Min_cycle;Max_cycle;Signal;HPM_P1;HPM_P2
2020/12/23 00:00:35;;;;;;;2.25;0.80;;;11.30;99.90;;;;;;5081112;28;20021;-76
2020/12/23 00:03:01;;;;;;;0.82;0.77;;;11.30;99.90;;;;;;5083886;28;20081;-70
2020/12/23 00:05:26;;;;;;;1.65;0.82;;;11.20;99.90;;;;;;5080668;28;20024;-66
2020/12/23 00:07:52;;;;;;;2.05;1.00;;;11.20;99.90;;;;;;5086375;28;20024;-67
2020/12/23 00:10:17;;;;;;;3.42;0.77;;;11.20;99.90;;;;;;5084357;28;20474;-68
2020/12/23 00:12:43;;;;;;;3.33;0.70;;;11.20;99.90;;;;;;5085718;28;20522;-73
2020/12/23 00:15:09;;;;;;;1.45;0.90;;;11.20;99.90;;;;;;5063169;28;20032;-69
2020/12/23 00:17:35;;;;;;;0.88;0.80;;;11.20;99.90;;;;;;5080213;28;20090;-75
2020/12/23 00:20:00;;;;;;;0.80;0.80;;;11.30;99.90;;;;;;5078235;28;20028;-69
2020/12/23 00:22:26;;;;;;;3.33;0.85;;;11.40;99.90;;;;;;5079503;28;20027;-70
2020/12/23 00:24:52;;;;;;;1.75;0.80;;;11.50;99.90;;;;;;5082427;28;20560;-68
2020/12/23 00:27:21;;;;;;;0.80;0.68;;;11.60;99.90;;;;;;5082080;28;20431;-69
2020/12/23 00:29:49;;;;;;;0.90;0.80;;;11.60;99.90;;;;;;5082164;28;20415;-70
2020/12/23 00:32:19;;;;;;;0.63;0.63;;;11.70;99.90;;;;;;5077376;28;20025;-69
2020/12/23 00:34:46;;;;;;;0.50;0.50;;;11.80;99.90;;;;;;5090331;28;20062;-67
2020/12/23 00:37:12;;;;;;;0.73;0.60;;;11.90;99.90;;;;;;5086353;28;20391;-70
2020/12/23 00:39:38;;;;;;;4.18;0.70;;;12.10;99.90;;;;;;5089895;28;20107;-69
2020/12/23 00:42:04;;;;;;;0.90;0.60;;;12.30;99.90;;;;;;5090818;28;20081;-73
2020/12/23 00:44:29;;;;;;;2.35;0.50;;;12.40;99.90;;;;;;5090585;28;20062;-67
2020/12/23 00:46:55;;;;;;;0.73;0.50;;;12.50;99.90;;;;;;5090118;28;20028;-66
2020/12/23 00:49:21;;;;;;;4.35;0.75;;;12.60;99.90;;;;;;5090683;28;20434;-71
2020/12/23 00:51:50;;;;;;;2.30;0.70;;;12.60;99.90;;;;;;5092432;28;20016;-65
2020/12/23 00:54:15;;;;;;;1.00;0.65;;;12.70;99.90;;;;;;5094864;28;20024;-69
2020/12/23 00:56:41;;;;;;;1.55;0.73;;;12.70;99.90;;;;;;5093588;28;20153;-73
2020/12/23 00:59:06;;;;;;;0.80;0.70;;;12.70;99.90;;;;;;5094535;28;20020;-70
2020/12/23 01:01:32;;;;;;;0.82;0.50;;;12.80;99.90;;;;;;5076855;28;20384;-77
2020/12/23 01:03:58;;;;;;;0.70;0.60;;;12.80;99.90;;;;;;5094781;28;20030;-68
2020/12/23 01:06:23;;;;;;;3.30;0.82;;;12.80;99.90;;;;;;5091134;28;20423;-68
2020/12/23 01:08:49;;;;;;;1.63;0.50;;;12.80;99.90;;;;;;5089934;28;20480;-69
2020/12/23 01:11:15;;;;;;;1.13;0.60;;;12.90;99.90;;;;;;5093986;28;20031;-69
2020/12/23 01:13:40;;;;;;;0.65;0.50;;;12.90;99.90;;;;;;5093094;28;20070;-69
2020/12/23 01:16:06;;;;;;;0.40;0.40;;;12.90;99.90;;;;;;5094635;28;20028;-68
2020/12/23 01:18:32;;;;;;;0.68;0.30;;;13.00;99.90;;;;;;5093884;28;20434;-69
2020/12/23 01:20:58;;;;;;;0.57;0.57;;;13.00;99.90;;;;;;5093345;28;20028;-68
2020/12/23 01:23:24;;;;;;;1.25;0.70;;;13.00;99.90;;;;;;5093808;28;20503;-69
2020/12/23 01:25:53;;;;;;;0.43;0.40;;;13.10;99.90;;;;;;5092993;28;20036;-69
2020/12/23 01:28:19;;;;;;;0.40;0.40;;;13.10;99.90;;;;;;5094089;28;20040;-67
2020/12/23 01:30:45;;;;;;;0.45;0.40;;;13.10;99.90;;;;;;5093044;28;20270;-69
2020/12/23 01:33:11;;;;;;;0.82;0.60;;;13.10;99.90;;;;;;5093756;28;20052;-67
2020/12/23 01:35:36;;;;;;;0.77;0.40;;;13.10;99.90;;;;;;5093474;28;20519;-78
2020/12/23 01:38:02;;;;;;;0.68;0.40;;;13.20;99.90;;;;;;5093562;28;20036;-68
2020/12/23 01:40:28;;;;;;;0.65;0.50;;;13.20;99.90;;;;;;5093302;28;20074;-67
2020/12/23 01:42:54;;;;;;;0.95;0.50;;;13.20;99.90;;;;;;5092942;28;20028;-67
2020/12/23 01:45:19;;;;;;;0.40;0.40;;;13.30;99.90;;;;;;5093107;28;20125;-66
2020/12/23 01:47:45;;;;;;;0.95;0.30;;;13.30;99.90;;;;;;5093015;28;20020;-67
2020/12/23 01:50:14;;;;;;;0.65;0.50;;;13.30;99.90;;;;;;5093584;28;20377;-68
2020/12/23 01:52:41;;;;;;;0.45;0.20;;;13.30;99.90;;;;;;5084954;28;20024;-69
2020/12/23 01:55:08;;;;;;;0.30;0.30;;;13.30;99.90;;;;;;5093503;28;20027;-67
2020/12/23 01:57:34;;;;;;;0.60;0.40;;;13.40;99.80;;;;;;5093087;28;20032;-77
2020/12/23 02:00:01;;;;;;;2.25;0.38;;;13.40;99.40;;;;;;5074426;28;20391;-67
2020/12/23 02:02:30;;;;;;;1.27;0.32;;;13.40;99.20;;;;;;5092820;28;20023;-67
2020/12/23 02:05:01;;;;;;;0.75;0.20;;;13.60;98.60;;;;;;5092274;28;20020;-67
2020/12/23 02:07:28;;;;;;;0.43;0.28;;;13.60;98.00;;;;;;5093115;28;20512;-68
2020/12/23 02:09:56;;;;;;;0.30;0.30;;;13.70;97.70;;;;;;5092327;28;20380;-69
2020/12/23 02:12:23;;;;;;;0.98;0.32;;;13.70;97.40;;;;;;5093430;28;20032;-67
2020/12/23 02:14:49;;;;;;;0.55;0.25;;;13.70;97.40;;;;;;5074117;28;20040;-69
2020/12/23 02:17:15;;;;;;;1.58;0.50;;;13.80;97.00;;;;;;5092616;28;20397;-68
2020/12/23 02:19:50;;;;;;;0.43;0.30;;;13.80;96.80;;;;;;5092568;28;20042;-68
2020/12/23 02:22:18;;;;;;;0.73;0.20;;;13.80;96.60;;;;;;5092574;28;20028;-67
2020/12/23 02:24:45;;;;;;;0.32;0.30;;;13.80;96.50;;;;;;5092377;28;20016;-67
2020/12/23 02:27:10;;;;;;;0.40;0.40;;;13.80;96.50;;;;;;5093025;28;20484;-67
2020/12/23 02:29:36;;;;;;;2.58;0.30;;;13.80;96.40;;;;;;5091837;28;20054;-77
2020/12/23 02:32:02;;;;;;;0.28;0.28;;;13.80;95.70;;;;;;5092590;28;20035;-68
2020/12/23 02:34:27;;;;;;;0.40;0.40;;;13.90;95.60;;;;;;5092263;28;20542;-73
2020/12/23 02:36:53;;;;;;;0.32;0.30;;;13.90;95.60;;;;;;5091902;28;20081;-68
2020/12/23 02:39:19;;;;;;;0.40;0.20;;;13.90;95.60;;;;;;5092764;28;20032;-68
2020/12/23 02:41:44;;;;;;;0.60;0.40;;;13.90;95.60;;;;;;5091211;28;20146;-73
2020/12/23 02:44:10;;;;;;;0.30;0.30;;;13.90;95.40;;;;;;5092570;28;20100;-67
2020/12/23 02:46:36;;;;;;;0.32;0.32;;;13.90;95.30;;;;;;5092427;28;20036;-76
2020/12/23 02:49:01;;;;;;;0.60;0.40;;;13.90;95.10;;;;;;5091639;28;20036;-67
2020/12/23 02:51:27;;;;;;;0.98;0.30;;;13.90;95.20;;;;;;5092328;28;20042;-69
2020/12/23 02:53:52;;;;;;;0.22;0.22;;;13.90;95.30;;;;;;5091513;28;20103;-69
2020/12/23 02:56:18;;;;;;;1.42;0.20;;;13.90;95.10;;;;;;5092208;28;20032;-68
2020/12/23 02:58:44;;;;;;;0.45;0.20;;;13.90;95.10;;;;;;5091597;28;20028;-69
2020/12/23 03:01:09;;;;;;;0.47;0.30;;;13.90;95.30;;;;;;5092055;28;20031;-69
2020/12/23 03:03:35;;;;;;;0.88;0.30;;;13.90;95.20;;;;;;5092305;28;20066;-67
2020/12/23 03:06:01;;;;;;;0.30;0.30;;;13.90;94.60;;;;;;5091005;28;20043;-68
2020/12/23 03:08:26;;;;;;;0.30;0.30;;;14.00;94.60;;;;;;5092218;28;20074;-67
2020/12/23 03:10:52;;;;;;;0.55;0.40;;;14.00;94.50;;;;;;5091278;28;20063;-68
2020/12/23 03:13:17;;;;;;;0.93;0.20;;;14.00;94.50;;;;;;5090828;28;20028;-67
2020/12/23 03:15:43;;;;;;;0.50;0.30;;;13.90;94.30;;;;;;5091206;28;20032;-70
2020/12/23 03:18:09;;;;;;;0.43;0.35;;;14.00;93.80;;;;;;5091103;28;20036;-70
2020/12/23 03:20:34;;;;;;;0.30;0.30;;;14.00;93.70;;;;;;5091618;28;20024;-68
2020/12/23 03:23:00;;;;;;;0.47;0.20;;;14.00;93.60;;;;;;5091247;28;20016;-67
2020/12/23 03:25:26;;;;;;;0.75;0.30;;;14.00;93.60;;;;;;5073414;28;20556;-67
2020/12/23 03:27:51;;;;;;;0.35;0.20;;;14.00;93.10;;;;;;5090665;28;20488;-63
2020/12/23 03:30:17;;;;;;;0.82;0.30;;;14.00;92.80;;;;;;5073753;28;20509;-69
2020/12/23 03:32:42;;;;;;;0.70;0.40;;;14.10;92.90;;;;;;5090390;28;20052;-69
2020/12/23 03:35:08;;;;;;;1.95;0.82;;;14.10;92.80;;;;;;5091502;28;20024;-68
2020/12/23 03:37:34;;;;;;;1.17;0.40;;;14.00;92.70;;;;;;5091547;28;20098;-64
2020/12/23 03:39:59;;;;;;;0.20;0.20;;;14.10;92.90;;;;;;5090692;28;20166;-67
2020/12/23 03:42:25;;;;;;;0.30;0.30;;;14.10;92.80;;;;;;5091536;28;20063;-68
2020/12/23 03:44:51;;;;;;;0.28;0.28;;;14.00;93.20;;;;;;5072496;28;20039;-66
2020/12/23 03:47:16;;;;;;;0.30;0.30;;;14.00;93.30;;;;;;5091170;28;20481;-67
2020/12/23 03:49:42;;;;;;;0.30;0.30;;;14.00;92.80;;;;;;5090443;28;20028;-76
2020/12/23 03:52:08;;;;;;;1.38;0.52;;;14.00;92.70;;;;;;5091415;28;20028;-67
2020/12/23 03:54:34;;;;;;;0.73;0.30;;;14.00;92.80;;;;;;5091165;28;20416;-67
2020/12/23 03:56:59;;;;;;;3.30;0.45;;;14.00;92.70;;;;;;5090524;28;20032;-67
2020/12/23 03:59:25;;;;;;;0.20;0.20;;;13.90;93.30;;;;;;5091539;28;20067;-67
2020/12/23 04:01:50;;;;;;;0.60;0.30;;;13.90;92.90;;;;;;5090501;28;20529;-66
2020/12/23 04:04:16;;;;;;;2.50;0.40;;;13.90;92.60;;;;;;5091033;28;20042;-67
2020/12/23 04:06:42;;;;;;;1.38;0.38;;;13.90;92.50;;;;;;5087364;28;20086;-76
2020/12/23 04:09:08;;;;;;;1.50;0.47;;;13.90;92.20;;;;;;5090874;28;20054;-68
2020/12/23 04:11:33;;;;;;;0.20;0.20;;;14.00;92.10;;;;;;5090564;28;20024;-67
2020/12/23 04:14:01;;;;;;;0.82;0.22;;;13.90;92.40;;;;;;5090300;28;20049;-65
2020/12/23 04:16:26;;;;;;;1.13;0.50;;;13.90;92.90;;;;;;5072999;28;20469;-70
2020/12/23 04:18:52;;;;;;;1.95;0.40;;;13.80;94.40;;;;;;5090250;28;20119;-68
2020/12/23 04:21:18;;;;;;;0.95;0.40;;;13.70;95.60;;;;;;5091286;28;20032;-66
2020/12/23 04:23:43;;;;;;;0.30;0.30;;;13.50;96.40;;;;;;5090516;28;20060;-75
2020/12/23 04:26:09;;;;;;;0.43;0.30;;;13.50;97.30;;;;;;5076637;28;20405;-66
2020/12/23 04:28:36;;;;;;;0.85;0.40;;;13.40;97.90;;;;;;5095229;28;20020;-67
2020/12/23 04:31:02;;;;;;;0.63;0.40;;;13.40;97.20;;;;;;5094215;28;20107;-68
2020/12/23 04:33:28;;;;;;;1.42;0.77;;;13.40;97.10;;;;;;5095379;28;20473;-66
2020/12/23 04:35:53;;;;;;;0.60;0.50;;;13.40;96.20;;;;;;5094390;28;20069;-68
2020/12/23 04:38:19;;;;;;;1.05;0.60;;;13.40;96.30;;;;;;5095288;28;20036;-67
2020/12/23 04:40:46;;;;;;;2.80;0.57;;;13.50;96.20;;;;;;5094421;28;20365;-69
2020/12/23 04:43:13;;;;;;;0.35;0.30;;;13.40;98.90;;;;;;5094583;28;20023;-72
2020/12/23 04:45:39;;;;;;;0.45;0.45;;;13.30;99.90;;;;;;5094688;28;20051;-66
2020/12/23 04:48:08;;;;;;;0.80;0.43;;;13.20;99.90;;;;;;5093645;28;20080;-66
2020/12/23 04:50:33;;;;;;;1.33;0.40;;;13.00;99.90;;;;;;5094170;28;20024;-69
2020/12/23 04:53:00;;;;;;;1.98;0.50;;;12.80;99.90;;;;;;5093858;28;20084;-66
2020/12/23 04:55:25;;;;;;;1.30;0.57;;;12.70;99.90;;;;;;5094675;28;20028;-67
2020/12/23 04:57:56;;;;;;;1.38;0.60;;;12.60;99.90;;;;;;5093453;28;20095;-66
2020/12/23 05:00:24;;;;;;;0.40;0.40;;;12.60;99.90;;;;;;5094668;28;20032;-68
2020/12/23 05:02:50;;;;;;;0.55;0.55;;;12.50;99.90;;;;;;5093605;28;20092;-71
2020/12/23 05:05:16;;;;;;;1.40;0.40;;;12.50;99.90;;;;;;5094161;28;20032;-65
2020/12/23 05:07:42;;;;;;;0.32;0.30;;;12.50;99.90;;;;;;5093153;28;20043;-75
2020/12/23 05:10:08;;;;;;;0.68;0.32;;;12.50;99.90;;;;;;5093776;28;20026;-69
2020/12/23 05:12:34;;;;;;;0.82;0.45;;;12.40;99.90;;;;;;5094610;28;20103;-69
2020/12/23 05:15:07;;;;;;;0.75;0.60;;;12.40;99.90;;;;;;5075308;28;20170;-66
2020/12/23 05:17:32;;;;;;;1.75;0.47;;;12.40;99.90;;;;;;5094173;28;20028;-71
2020/12/23 05:19:58;;;;;;;0.73;0.45;;;12.40;99.90;;;;;;5075084;28;20028;-68
2020/12/23 05:22:28;;;;;;;1.10;0.60;;;12.50;99.90;;;;;;5094123;28;20024;-67
2020/12/23 05:24:54;;;;;;;0.47;0.47;;;12.50;99.90;;;;;;5093454;28;20016;-66
2020/12/23 05:27:23;;;;;;;3.30;0.52;;;12.40;99.90;;;;;;5093617;28;20554;-72
2020/12/23 05:29:48;;;;;;;1.13;0.50;;;12.50;99.90;;;;;;5093389;28;20028;-68
2020/12/23 05:32:14;;;;;;;1.65;0.40;;;12.50;99.90;;;;;;5094083;28;20020;-67
2020/12/23 05:34:42;;;;;;;0.20;0.20;;;12.50;99.90;;;;;;5093289;28;20145;-69
2020/12/23 05:37:08;;;;;;;0.85;0.30;;;12.50;99.90;;;;;;5092402;28;20107;-67
2020/12/23 05:39:34;;;;;;;1.42;0.60;;;12.50;99.90;;;;;;5093563;28;20035;-73
2020/12/23 05:42:01;;;;;;;3.03;1.05;;;12.50;99.90;;;;;;5093015;28;20028;-67
2020/12/23 05:44:29;;;;;;;0.50;0.50;;;12.60;99.90;;;;;;5093605;28;20127;-68
2020/12/23 05:46:55;;;;;;;0.50;0.50;;;12.60;99.90;;;;;;5092473;28;20036;-68
2020/12/23 05:49:24;;;;;;;1.23;0.52;;;12.60;99.90;;;;;;5093540;28;20076;-68
2020/12/23 05:51:50;;;;;;;0.73;0.60;;;12.60;99.90;;;;;;5092827;28;20448;-69
2020/12/23 05:54:21;;;;;;;1.35;0.47;;;12.60;99.90;;;;;;5093475;28;20419;-68
2020/12/23 05:56:51;;;;;;;3.45;0.50;;;12.60;99.90;;;;;;5092583;28;20067;-70
2020/12/23 05:59:17;;;;;;;0.45;0.35;;;12.60;99.90;;;;;;5093279;28;20032;-67
2020/12/23 06:01:44;;;;;;;0.55;0.50;;;12.60;99.90;;;;;;5093145;28;20410;-77
2020/12/23 06:04:15;;;;;;;3.70;0.52;;;12.70;99.90;;;;;;5092943;28;20139;-64
2020/12/23 06:06:44;;;;;;;;;;;12.70;99.90;;;;;;5091128;28;20039;-68
2020/12/23 06:09:11;;;;;;;1.95;0.40;;;12.70;99.90;;;;;;5092918;28;19919;-67
2020/12/23 06:11:47;;;;;;;4.75;1.75;;;12.70;99.90;;;;;;5093132;28;20024;-67
2020/12/23 06:14:21;;;;;;;1.60;0.50;;;12.70;99.90;;;;;;5093274;28;20032;-72
2020/12/23 06:16:50;;;;;;;1.58;0.60;;;12.70;99.90;;;;;;5092468;28;20094;-73
2020/12/23 06:19:36;;;;;;;5.97;1.35;;;12.70;99.90;;;;;;5092927;28;20026;-72
2020/12/23 06:22:03;;;;;;;1.40;0.70;;;12.70;99.90;;;;;;5091764;28;20055;-69
2020/12/23 06:24:29;;;;;;;2.25;0.60;;;12.70;99.90;;;;;;5092798;28;20024;-65
2020/12/23 06:26:56;;;;;;;3.15;0.52;;;12.70;99.90;;;;;;5073933;28;20058;-68
2020/12/23 06:29:24;;;;;;;0.63;0.40;;;12.70;99.90;;;;;;5092911;28;20027;-65
2020/12/23 06:31:56;;;;;;;1.77;0.50;;;12.70;99.90;;;;;;5091920;28;20107;-68
2020/12/23 06:34:40;;;;;;;0.45;0.40;;;12.70;99.90;;;;;;5092962;28;20035;-67
2020/12/23 06:37:23;;;;;;;0.75;0.50;;;12.70;99.90;;;;;;5084087;28;20088;-68
2020/12/23 06:39:49;;;;;;;0.40;0.38;;;12.70;99.90;;;;;;5091948;28;20032;-71
2020/12/23 06:42:14;;;;;;;0.80;0.40;;;12.70;99.90;;;;;;5092674;28;20020;-71
2020/12/23 06:44:43;;;;;;;0.52;0.52;;;12.70;99.90;;;;;;5092357;28;20048;-72
2020/12/23 06:47:22;;;;;;;2.20;0.60;;;12.60;99.90;;;;;;5091283;28;20121;-66
2020/12/23 06:50:03;;;;;;;0.52;0.40;;;12.70;99.90;;;;;;5089848;28;20044;-68
2020/12/23 06:52:37;;;;;;;0.90;0.60;;;12.60;99.90;;;;;;5069736;28;20028;-65
2020/12/23 06:55:16;;;;;;;1.15;0.50;;;12.60;99.90;;;;;;5070266;28;20469;-64
2020/12/23 06:57:44;;;;;;;0.90;0.70;;;12.60;99.90;;;;;;5088996;28;20024;-65
2020/12/23 07:00:25;;;;;;;0.75;0.73;;;12.70;99.90;;;;;;5091295;28;20035;-65
2020/12/23 07:03:02;;;;;;;1.42;0.50;;;12.70;99.90;;;;;;5077494;28;20026;-78
2020/12/23 07:05:27;;;;;;;0.88;0.80;;;12.70;99.80;;;;;;5085627;28;20032;-68
2020/12/23 07:07:55;;;;;;;2.35;0.90;;;12.70;99.50;;;;;;5084937;28;20032;-69
2020/12/23 07:10:26;;;;;;;1.85;1.00;;;12.70;99.20;;;;;;5091743;28;20473;-67
2020/12/23 07:12:55;;;;;;;1.13;0.90;;;12.80;98.80;;;;;;5073160;28;20380;-65
2020/12/23 07:15:28;;;;;;;1.38;0.90;;;12.80;99.00;;;;;;5091810;28;20040;-67
2020/12/23 07:18:10;;;;;;;1.90;1.27;;;12.80;98.50;;;;;;5090737;28;20043;-67
2020/12/23 07:20:40;;;;;;;2.17;1.48;;;12.80;98.30;;;;;;5092101;28;20043;-71
2020/12/23 07:23:11;;;;;;;1.30;1.15;;;12.80;98.20;;;;;;5081706;28;20518;-71
2020/12/23 07:25:39;;;;;;;3.33;1.35;;;12.80;98.00;;;;;;5091417;28;20051;-69
2020/12/23 07:28:08;;;;;;;1.52;1.25;;;12.80;97.60;;;;;;5091815;28;20024;-71
2020/12/23 07:30:36;;;;;;;1.52;0.75;;;12.90;97.60;;;;;;5092063;28;20043;-72
2020/12/23 07:33:10;;;;;;;3.05;1.25;;;12.90;97.20;;;;;;5091006;28;20056;-75
2020/12/23 07:35:37;;;;;;;1.23;1.13;;;13.00;96.60;;;;;;5091789;28;20044;-74
2020/12/23 07:38:05;;;;;;;1.73;1.00;;;13.00;96.40;;;;;;5090780;28;20039;-66
2020/12/23 07:40:31;;;;;;;1.25;0.73;;;13.00;96.00;;;;;;5073706;28;20115;-72
2020/12/23 07:42:57;;;;;;;0.60;0.60;;;13.10;95.70;;;;;;5090890;28;20504;-72
2020/12/23 07:45:25;;;;;;;0.93;0.50;;;13.10;95.40;;;;;;5091464;28;20070;-69
2020/12/23 07:48:08;;;;;;;0.60;0.60;;;13.10;95.20;;;;;;5090225;28;20469;-71
2020/12/23 07:50:39;;;;;;;2.70;0.47;;;13.10;95.10;;;;;;5073168;28;20089;-71
2020/12/23 07:53:12;;;;;;;2.40;0.40;;;13.10;94.60;;;;;;5072554;28;20024;-70
2020/12/23 07:55:39;;;;;;;0.57;0.57;;;13.20;94.30;;;;;;5091006;28;20028;-72
2020/12/23 07:58:05;;;;;;;2.33;0.90;;;13.20;93.80;;;;;;5090383;28;20020;-64
2020/12/23 08:00:31;;;;;;;0.60;0.60;;;13.20;93.90;;;;;;5091198;28;20036;-72
2020/12/23 08:02:57;;;;;;;0.90;0.70;;;13.20;93.60;;;;;;5090527;28;20024;-72
2020/12/23 08:05:22;;;;;;;2.83;0.80;;;13.20;93.30;;;;;;5091053;28;20457;-71
2020/12/23 08:07:48;;;;;;;1.25;0.73;;;13.20;93.90;;;;;;5090259;28;20032;-84
2020/12/23 08:10:15;;;;;;;1.67;0.90;;;13.30;93.20;;;;;;5090788;28;20028;-72
2020/12/23 08:12:52;;;;;;;2.20;0.80;;;13.30;92.90;;;;;;5091311;28;20099;-71
2020/12/23 08:15:18;;;;;;;0.57;0.57;;;13.30;92.70;;;;;;5091314;28;20038;-69
2020/12/23 08:17:44;;;;;;;0.98;0.60;;;13.30;92.60;;;;;;5091027;28;20024;-73
2020/12/23 08:20:16;;;;;;;0.90;0.90;;;13.40;92.40;;;;;;5090502;28;20032;-65
2020/12/23 08:22:45;;;;;;;1.45;1.00;;;13.40;92.10;;;;;;5091511;28;20036;-81
2020/12/23 08:25:16;;;;;;;0.80;0.80;;;13.40;92.40;;;;;;5090414;28;20024;-71
2020/12/23 08:27:46;;;;;;;1.08;0.80;;;13.40;91.70;;;;;;5073010;28;20384;-75
2020/12/23 08:30:19;;;;;;;4.00;1.05;;;13.40;91.50;;;;;;5077904;28;20099;-82
2020/12/23 08:32:47;;;;;;;2.60;0.80;;;13.50;92.00;;;;;;5090004;28;20032;-66
2020/12/23 08:35:14;;;;;;;2.28;0.68;;;13.50;91.60;;;;;;5090285;28;20107;-68
2020/12/23 08:37:39;;;;;;;0.60;0.60;;;13.50;91.30;;;;;;5090853;28;20103;-66
2020/12/23 08:40:07;;;;;;;2.85;0.55;;;13.60;91.10;;;;;;5089888;28;20115;-67
2020/12/23 08:42:33;;;;;;;1.27;0.60;;;13.60;91.10;;;;;;5069165;28;20055;-66
2020/12/23 08:44:59;;;;;;;1.35;0.60;;;13.60;90.80;;;;;;5090033;28;20481;-68
2020/12/23 08:47:27;;;;;;;0.80;0.65;;;13.70;90.50;;;;;;5090883;28;20089;-67
2020/12/23 08:49:54;;;;;;;2.33;0.63;;;13.70;90.30;;;;;;5090550;28;20077;-74
2020/12/23 08:52:21;;;;;;;0.80;0.77;;;13.80;90.30;;;;;;5090555;28;20044;-64
2020/12/23 08:54:50;;;;;;;0.93;0.63;;;13.80;90.10;;;;;;5090574;28;20024;-64
2020/12/23 08:57:27;;;;;;;0.65;0.65;;;13.90;90.50;;;;;;5089918;28;20062;-69
2020/12/23 08:59:54;;;;;;;2.35;0.90;;;13.90;89.20;;;;;;5082619;28;20473;-81
2020/12/23 09:02:21;;;;;;;0.40;0.40;;;13.90;89.30;;;;;;5090640;28;20032;-70
2020/12/23 09:04:46;;;;;;;0.70;0.68;;;14.00;89.00;;;;;;5085789;28;20029;-69
2020/12/23 09:07:19;;;;;;;0.68;0.68;;;14.00;87.50;;;;;;5089537;28;20031;-70
2020/12/23 09:09:45;;;;;;;1.10;0.73;;;14.10;87.30;;;;;;5091307;28;20040;-70
2020/12/23 09:12:19;;;;;;;1.30;0.50;;;14.10;87.20;;;;;;5085908;28;20024;-63
2020/12/23 09:14:45;;;;;;;0.68;0.63;;;14.10;86.90;;;;;;5094494;28;20058;-68
2020/12/23 09:17:21;;;;;;;0.80;0.60;;;14.10;86.30;;;;;;5089154;28;20381;-68
2020/12/23 09:19:53;;;;;;;0.63;0.57;;;14.20;86.60;;;;;;5090990;28;20113;-67
2020/12/23 09:22:46;;;;;;;0.75;0.70;;;14.20;86.00;;;;;;5093012;28;20054;-71
2020/12/23 09:25:22;;;;;;;3.80;0.70;;;14.20;85.90;;;;;;5086877;28;20020;-74
2020/12/23 09:27:49;;;;;;;1.85;0.70;;;14.10;86.50;;;;;;5094365;28;20111;-71
2020/12/23 09:30:30;;;;;;;0.55;0.50;;;14.10;86.70;;;;;;5087114;28;20031;-70
2020/12/23 09:32:55;;;;;;;;;;;14.20;86.40;;;;;;5090243;28;20047;-79
2020/12/23 09:35:24;;;;;;;1.13;1.00;;;14.10;86.20;;;;;;5093777;28;20345;-66
2020/12/23 09:38:11;;;;;;;2.92;0.60;;;14.10;86.70;;;;;;5093553;28;20032;-68
2020/12/23 09:40:42;;;;;;;1.92;0.90;;;14.10;87.00;;;;;;5086851;28;20036;-66
2020/12/23 09:43:12;;;;;;;4.68;1.02;;;14.10;89.00;;;;;;5087493;28;20113;-65
2020/12/23 09:45:38;;;;;;;0.65;0.60;;;14.00;89.10;;;;;;5092825;28;20523;-68
2020/12/23 09:48:04;;;;;;;0.77;0.77;;;14.00;90.00;;;;;;5093848;28;20086;-68
2020/12/23 09:50:30;;;;;;;0.95;0.77;;;13.90;90.20;;;;;;5086623;28;20032;-66
2020/12/23 09:52:56;;;;;;;1.70;0.90;;;13.90;90.20;;;;;;5093270;28;20077;-74
2020/12/23 09:55:22;;;;;;;1.63;1.02;;;13.90;90.40;;;;;;5093114;28;20472;-67
2020/12/23 09:57:48;;;;;;;1.63;0.73;;;13.90;90.40;;;;;;5093606;28;20024;-64
2020/12/23 10:00:13;;;;;;;1.73;0.90;;;14.00;90.40;;;;;;5092413;28;20039;-69
2020/12/23 10:02:39;;;;;;;0.65;0.60;;;14.00;90.10;;;;;;5093209;28;20028;-63
2020/12/23 10:05:05;;;;;;;1.85;0.70;;;13.90;90.00;;;;;;5091275;28;20030;-68
2020/12/23 10:07:31;;;;;;;1.50;0.90;;;14.00;90.10;;;;;;5058332;28;20040;-68
2020/12/23 10:09:56;;;;;;;0.70;0.70;;;14.00;89.90;;;;;;5092848;28;20077;-77
2020/12/23 10:12:23;;;;;;;1.40;0.77;;;13.90;89.70;;;;;;5074823;28;20056;-66
2020/12/23 10:14:51;;;;;;;0.80;0.70;;;13.90;90.00;;;;;;5092795;28;20024;-65
2020/12/23 10:17:18;;;;;;;3.20;1.13;;;13.90;90.00;;;;;;5092240;28;20604;-67
2020/12/23 10:19:44;;;;;;;1.10;0.75;;;13.90;89.30;;;;;;5092535;28;20112;-72
2020/12/23 10:22:10;;;;;;;0.95;0.80;;;14.00;88.90;;;;;;5084201;28;20056;-68
2020/12/23 10:24:35;;;;;;;2.67;1.05;;;14.00;88.40;;;;;;5092666;28;20076;-66
2020/12/23 10:27:01;;;;;;;1.30;0.88;;;14.10;88.10;;;;;;5091342;28;20032;-68
2020/12/23 10:29:27;;;;;;;1.42;0.80;;;14.10;87.70;;;;;;5092633;28;20389;-67
2020/12/23 10:31:52;;;;;;;1.92;1.00;;;14.20;87.90;;;;;;5074701;28;20016;-68
2020/12/23 10:34:18;;;;;;;3.30;0.90;;;14.30;86.80;;;;;;5089236;28;20612;-66
2020/12/23 10:36:46;;;;;;;2.90;1.00;;;14.30;86.00;;;;;;5086374;28;20126;-66
2020/12/23 10:39:13;;;;;;;2.55;0.95;;;14.40;85.60;;;;;;5073602;28;20020;-74
2020/12/23 10:41:39;;;;;;;5.63;1.98;;;14.40;84.50;;;;;;5074358;28;20073;-69
2020/12/23 10:44:05;;;;;;;2.35;0.68;;;14.50;85.00;;;;;;5091568;28;20465;-67
2020/12/23 10:46:30;;;;;;;1.67;0.80;;;14.60;84.20;;;;;;5092179;28;20468;-68
2020/12/23 10:48:56;;;;;;;5.85;1.50;;;14.60;84.30;;;;;;5092721;28;20381;-78
2020/12/23 10:51:22;;;;;;;3.08;1.08;;;14.60;84.10;;;;;;5091866;28;20036;-70
2020/12/23 10:53:47;;;;;;;1.05;0.80;;;14.70;84.20;;;;;;5092180;28;20032;-66
2020/12/23 10:56:13;;;;;;;1.60;0.70;;;14.70;84.20;;;;;;5073015;28;20110;-68
2020/12/23 10:58:38;;;;;;;1.65;0.80;;;14.80;84.80;;;;;;5092009;28;20465;-67
2020/12/23 11:01:05;;;;;;;1.55;0.90;;;14.80;83.50;;;;;;5091426;28;20055;-67
2020/12/23 11:03:34;;;;;;;1.02;0.88;;;14.80;84.10;;;;;;5092068;28;20461;-66
2020/12/23 11:06:00;;;;;;;1.15;0.95;;;14.80;85.70;;;;;;5084681;28;20066;-76
2020/12/23 11:08:27;;;;;;;1.02;0.90;;;14.80;88.10;;;;;;5092163;28;20036;-66
2020/12/23 11:10:54;;;;;;;3.35;1.00;;;14.70;87.20;;;;;;5092533;28;20046;-67
2020/12/23 11:13:20;;;;;;;0.85;0.85;;;14.60;87.90;;;;;;5090714;28;20079;-67
2020/12/23 11:15:46;;;;;;;6.10;1.10;;;14.60;89.40;;;;;;5092027;28;20156;-67
2020/12/23 11:18:12;;;;;;;5.93;1.58;;;14.60;89.40;;;;;;5090842;28;20423;-68
2020/12/23 11:20:38;;;;;;;2.20;1.02;;;14.50;89.80;;;;;;5091794;28;20035;-68
2020/12/23 11:23:05;;;;;;;1.33;0.70;;;14.50;90.30;;;;;;5090802;28;20058;-69
2020/12/23 11:25:31;;;;;;;2.65;1.10;;;14.40;90.60;;;;;;5091766;28;20073;-68
2020/12/23 11:27:57;;;;;;;3.83;1.10;;;14.40;90.80;;;;;;5073519;28;20399;-67
2020/12/23 11:30:23;;;;;;;3.08;1.15;;;14.30;91.20;;;;;;5073139;28;20027;-67
2020/12/23 11:32:48;;;;;;;2.15;1.20;;;14.30;91.10;;;;;;5091285;28;20465;-67
2020/12/23 11:35:14;;;;;;;2.75;1.40;;;14.20;91.40;;;;;;5085331;28;20031;-68
2020/12/23 11:37:40;;;;;;;1.30;1.00;;;14.30;91.20;;;;;;5091452;28;20047;-67
2020/12/23 11:40:05;;;;;;;1.52;1.00;;;14.20;91.20;;;;;;5072703;28;20036;-75
2020/12/23 11:42:31;;;;;;;1.70;1.40;;;14.20;90.90;;;;;;5091714;28;20077;-67
2020/12/23 11:44:57;;;;;;;1.58;1.40;;;14.20;91.30;;;;;;5091190;28;20078;-69
2020/12/23 11:47:22;;;;;;;3.58;2.70;;;14.10;91.60;;;;;;5090990;28;20089;-66
2020/12/23 11:49:48;;;;;;;7.70;4.88;;;14.00;92.70;;;;;;5073966;28;20024;-67
2020/12/23 11:52:14;;;;;;;6.97;3.22;;;13.90;94.10;;;;;;5090478;28;20035;-68
2020/12/23 11:54:39;;;;;;;2.67;1.83;;;13.80;94.60;;;;;;5091940;28;20035;-66
2020/12/23 11:57:05;;;;;;;1.70;1.40;;;13.80;93.90;;;;;;5090470;28;20110;-68
2020/12/23 11:59:31;;;;;;;1.40;1.30;;;13.70;95.40;;;;;;5091261;28;20082;-65
2020/12/23 12:01:57;;;;;;;2.28;1.23;;;13.70;94.80;;;;;;5073412;28;20100;-69
2020/12/23 12:04:24;;;;;;;3.42;0.90;;;13.70;95.60;;;;;;5087734;28;20058;-67
2020/12/23 12:06:57;;;;;;;1.55;1.33;;;13.70;94.20;;;;;;5071699;28;20036;-68
2020/12/23 12:09:23;;;;;;;1.55;1.00;;;13.70;94.90;;;;;;5090788;28;20028;-66
2020/12/23 12:11:52;;;;;;;4.65;0.90;;;13.70;95.50;;;;;;5072971;28;20032;-67
2020/12/23 12:14:19;;;;;;;1.20;0.90;;;13.60;94.80;;;;;;5089903;28;20028;-66
2020/12/23 12:16:48;;;;;;;3.00;0.90;;;13.70;95.00;;;;;;5091348;28;20055;-67
2020/12/23 12:19:14;;;;;;;2.42;1.05;;;13.80;93.30;;;;;;5090173;28;20024;-65
2020/12/23 12:21:39;;;;;;;1.65;1.05;;;13.80;92.90;;;;;;5091318;28;20038;-65
2020/12/23 12:24:05;;;;;;;1.13;0.95;;;13.80;92.80;;;;;;5090484;28;20024;-64
2020/12/23 12:26:34;;;;;;;4.03;1.60;;;13.90;92.20;;;;;;5090990;28;20086;-67
2020/12/23 12:29:01;;;;;;;2.55;1.50;;;14.00;92.00;;;;;;5091038;28;20028;-65
2020/12/23 12:31:28;;;;;;;1.00;0.80;;;14.10;91.50;;;;;;5090272;28;20032;-65
2020/12/23 12:33:54;;;;;;;5.47;1.25;;;14.10;90.70;;;;;;5091164;28;20024;-67
2020/12/23 12:36:21;;;;;;;3.03;1.85;;;14.20;91.10;;;;;;5086721;28;20069;-69
2020/12/23 12:38:47;;;;;;;2.95;1.52;;;14.30;91.70;;;;;;5090990;28;20114;-66
2020/12/23 12:41:13;;;;;;;3.28;1.00;;;14.30;90.70;;;;;;5089830;28;20108;-69
2020/12/23 12:43:38;;;;;;;2.17;0.70;;;14.40;87.90;;;;;;5085765;28;20035;-63
2020/12/23 12:46:07;;;;;;;0.77;0.75;;;14.40;88.80;;;;;;5073807;28;20139;-75
2020/12/23 12:48:33;;;;;;;2.15;0.80;;;14.40;87.80;;;;;;5094658;28;20032;-67